Time;durP1;ratioP1;P1;durP2;ratioP2;P2;SDS_P1;SDS_P2;PMS_P1;PMS_P2;Temp;Humidity;BMP_temperature;BMP_pressure;BME280_temperature;BME280_humidity;BME280_pressure;Samples;Min_cycle;Max_cycle;Signal;HPM_P1;HPM_P2
2023/03/20 00:02:05;;;;;;;53.85;28.55;;;;;;;;;;5063850;28;20404;-80
2023/03/20 00:04:31;;;;;;;53.70;27.15;;;;;;;;;;5064669;28;20902;-80
2023/03/20 00:06:58;;;;;;;53.05;27.52;;;;;;;;;;5065237;28;20442;-80
2023/03/20 00:09:25;;;;;;;49.80;27.02;;;;;;;;;;5069368;28;20435;-80
2023/03/20 00:11:54;;;;;;;53.53;27.08;;;;;;;;;;5069965;28;20407;-81
2023/03/20 00:14:23;;;;;;;53.83;27.97;;;;;;;;;;5070023;28;20434;-80
2023/03/20 00:16:52;;;;;;;50.65;26.25;;;;;;;;;;5067430;28;20427;-80
2023/03/20 00:19:19;;;;;;;48.45;26.05;;;;;;;;;;5067704;28;20459;-80
2023/03/20 00:21:47;;;;;;;46.75;25.08;;;;;;;;;;5067073;28;20416;-80
2023/03/20 00:24:15;;;;;;;45.58;23.67;;;;;;;;;;5067897;28;20504;-80
2023/03/20 00:26:43;;;;;;;45.83;24.92;;;;;;;;;;5067396;28;20404;-80
2023/03/20 00:29:15;;;;;;;50.42;24.73;;;;;;;;;;5068323;28;20430;-80
2023/03/20 00:31:44;;;;;;;42.00;23.70;;;;;;;;;;5070934;28;20462;-80
2023/03/20 00:34:13;;;;;;;43.67;23.90;;;;;;;;;;5061639;28;20415;-80
2023/03/20 00:36:40;;;;;;;42.00;23.43;;;;;;;;;;5070098;28;20479;-80
2023/03/20 00:39:07;;;;;;;42.95;23.95;;;;;;;;;;5072324;28;20417;-80
2023/03/20 00:41:35;;;;;;;44.63;24.33;;;;;;;;;;5070840;28;20423;-80
2023/03/20 00:44:03;;;;;;;43.17;24.35;;;;;;;;;;5070319;28;20433;-80
2023/03/20 00:46:31;;;;;;;40.60;24.25;;;;;;;;;;5071981;28;20499;-80
2023/03/20 00:49:00;;;;;;;41.22;23.52;;;;;;;;;;5068976;28;20407;-80
2023/03/20 00:51:28;;;;;;;42.23;24.30;;;;;;;;;;5070544;28;20426;-80
2023/03/20 00:53:55;;;;;;;44.33;23.95;;;;;;;;;;5064378;28;20420;-80
2023/03/20 00:56:30;;;;;;;40.50;24.52;;;;;;;;;;5068503;28;20809;-81
2023/03/20 00:58:57;;;;;;;47.65;25.55;;;;;;;;;;5067601;28;20443;-80
2023/03/20 01:01:25;;;;;;;44.13;23.27;;;;;;;;;;5068777;28;20434;-80
2023/03/20 01:03:51;;;;;;;41.70;23.23;;;;;;;;;;5070650;28;20423;-80
2023/03/20 01:06:18;;;;;;;39.05;24.02;;;;;;;;;;5070436;28;20432;-81
2023/03/20 01:08:48;;;;;;;42.60;23.30;;;;;;;;;;5066077;28;20493;-80
2023/03/20 01:11:16;;;;;;;44.55;23.92;;;;;;;;;;5069320;28;20427;-80
2023/03/20 01:13:43;;;;;;;45.70;23.88;;;;;;;;;;5070220;28;20429;-80
2023/03/20 01:16:17;;;;;;;39.85;23.08;;;;;;;;;;5068312;28;20429;-80
2023/03/20 01:18:44;;;;;;;45.05;24.30;;;;;;;;;;5065140;28;20446;-80
2023/03/20 01:21:11;;;;;;;42.30;22.97;;;;;;;;;;5067604;28;20427;-81
2023/03/20 01:23:37;;;;;;;43.97;22.80;;;;;;;;;;5064484;28;20426;-80
2023/03/20 01:26:06;;;;;;;45.80;24.15;;;;;;;;;;5067521;28;20438;-80
2023/03/20 01:28:32;;;;;;;34.97;21.65;;;;;;;;;;5063717;28;20452;-80
2023/03/20 01:31:00;;;;;;;31.27;18.20;;;;;;;;;;5070554;28;20428;-80
2023/03/20 01:33:28;;;;;;;26.95;15.82;;;;;;;;;;5065136;28;20451;-80
2023/03/20 01:35:56;;;;;;;25.52;14.05;;;;;;;;;;5065162;28;20433;-80
2023/03/20 01:38:24;;;;;;;20.63;13.30;;;;;;;;;;5069143;28;20458;-80
2023/03/20 01:40:54;;;;;;;19.95;12.77;;;;;;;;;;5068331;28;20933;-80
2023/03/20 01:43:22;;;;;;;22.67;13.43;;;;;;;;;;5066719;28;20426;-80
2023/03/20 01:45:57;;;;;;;22.63;13.00;;;;;;;;;;5064942;28;20460;-80
2023/03/20 01:48:26;;;;;;;20.27;13.23;;;;;;;;;;5067463;28;20435;-80
2023/03/20 01:50:52;;;;;;;20.25;12.93;;;;;;;;;;5067766;28;20436;-80
2023/03/20 01:53:21;;;;;;;23.67;13.87;;;;;;;;;;5065181;28;20433;-80
2023/03/20 01:55:50;;;;;;;19.50;13.30;;;;;;;;;;5065578;28;20452;-80
2023/03/20 01:58:19;;;;;;;18.77;13.10;;;;;;;;;;5066673;28;20418;-80
2023/03/20 02:00:48;;;;;;;23.15;13.27;;;;;;;;;;5064762;28;20431;-80
2023/03/20 02:03:15;;;;;;;21.55;12.98;;;;;;;;;;5062994;28;20919;-80
2023/03/20 02:05:44;;;;;;;20.05;12.55;;;;;;;;;;5069514;28;20459;-80
2023/03/20 02:08:23;;;;;;;20.25;12.90;;;;;;;;;;5068209;28;20431;-80
2023/03/20 02:10:50;;;;;;;18.10;12.73;;;;;;;;;;5068889;28;20429;-80
2023/03/20 02:13:16;;;;;;;19.65;12.52;;;;;;;;;;5068219;28;20436;-80
2023/03/20 02:15:59;;;;;;;19.73;12.55;;;;;;;;;;5066577;28;20434;-80
2023/03/20 02:18:25;;;;;;;19.92;13.10;;;;;;;;;;5069735;28;20945;-80
2023/03/20 02:21:05;;;;;;;18.50;12.07;;;;;;;;;;5067654;28;20423;-80
2023/03/20 02:23:57;;;;;;;17.75;11.45;;;;;;;;;;5068033;28;20436;-80
2023/03/20 02:26:39;;;;;;;17.60;11.95;;;;;;;;;;5066494;28;20436;-80
2023/03/20 02:29:16;;;;;;;20.30;11.30;;;;;;;;;;5067173;28;21481;-80
2023/03/20 02:31:58;;;;;;;20.55;12.73;;;;;;;;;;5069172;28;20413;-79
2023/03/20 02:34:49;;;;;;;20.48;11.63;;;;;;;;;;5069712;28;20427;-80
2023/03/20 02:37:38;;;;;;;16.60;11.40;;;;;;;;;;5071018;28;20925;-79
2023/03/20 02:40:15;;;;;;;18.27;11.38;;;;;;;;;;5066973;28;20431;-80
2023/03/20 02:42:45;;;;;;;17.40;11.38;;;;;;;;;;5071042;28;20421;-79
2023/03/20 02:45:14;;;;;;;15.97;11.00;;;;;;;;;;5071901;28;20431;-80
2023/03/20 02:47:46;;;;;;;20.85;12.18;;;;;;;;;;5068670;28;20432;-78
2023/03/20 02:50:16;;;;;;;17.98;11.75;;;;;;;;;;5068817;28;20435;-80
2023/03/20 02:52:49;;;;;;;18.30;12.05;;;;;;;;;;5069773;28;20426;-78
2023/03/20 02:55:20;;;;;;;16.35;11.02;;;;;;;;;;5070993;28;20520;-79
2023/03/20 02:57:50;;;;;;;17.98;12.20;;;;;;;;;;5069199;28;20478;-78
2023/03/20 03:00:25;;;;;;;21.00;12.05;;;;;;;;;;5071447;28;20419;-80
2023/03/20 03:02:52;;;;;;;19.67;12.10;;;;;;;;;;5070045;28;20504;-78
2023/03/20 03:05:21;;;;;;;18.48;12.43;;;;;;;;;;5072296;28;20950;-79
2023/03/20 03:07:50;;;;;;;17.92;11.70;;;;;;;;;;5071079;28;20904;-79
2023/03/20 03:10:19;;;;;;;16.00;11.40;;;;;;;;;;5071453;28;20487;-79
2023/03/20 03:12:48;;;;;;;17.63;10.80;;;;;;;;;;5071451;28;20434;-80
2023/03/20 03:15:16;;;;;;;17.73;11.98;;;;;;;;;;5068871;28;20432;-80
2023/03/20 03:17:44;;;;;;;17.00;10.35;;;;;;;;;;5069830;28;20429;-79
2023/03/20 03:20:19;;;;;;;20.42;11.70;;;;;;;;;;5075257;28;21307;-80
2023/03/20 03:22:46;;;;;;;17.00;10.93;;;;;;;;;;5070063;28;20422;-80
2023/03/20 03:25:14;;;;;;;17.05;11.95;;;;;;;;;;5074659;28;20434;-80
2023/03/20 03:27:42;;;;;;;16.50;11.00;;;;;;;;;;5073600;28;20425;-79
2023/03/20 03:30:11;;;;;;;15.10;10.10;;;;;;;;;;5074805;28;20425;-80
2023/03/20 03:32:42;;;;;;;18.67;11.27;;;;;;;;;;5071250;28;20851;-80
2023/03/20 03:35:13;;;;;;;15.68;11.00;;;;;;;;;;5073675;28;20529;-81
2023/03/20 03:37:42;;;;;;;17.50;10.90;;;;;;;;;;5071532;28;20437;-81
2023/03/20 03:40:16;;;;;;;15.90;10.32;;;;;;;;;;5075733;28;20427;-79
2023/03/20 03:42:49;;;;;;;19.08;10.52;;;;;;;;;;5067354;28;20428;-78
2023/03/20 03:45:16;;;;;;;14.70;9.80;;;;;;;;;;5063431;28;20437;-79
2023/03/20 03:47:44;;;;;;;16.85;10.82;;;;;;;;;;5063508;28;20418;-79
2023/03/20 03:50:15;;;;;;;13.43;9.60;;;;;;;;;;5061974;28;20497;-79
2023/03/20 03:52:43;;;;;;;15.25;9.98;;;;;;;;;;5066427;28;20435;-79
2023/03/20 03:55:11;;;;;;;13.48;10.00;;;;;;;;;;5066320;28;20547;-78
2023/03/20 03:57:39;;;;;;;14.30;10.05;;;;;;;;;;5065939;28;20411;-78
2023/03/20 04:00:10;;;;;;;13.38;9.27;;;;;;;;;;5065162;28;20438;-79
2023/03/20 04:02:37;;;;;;;14.50;9.75;;;;;;;;;;5065704;28;20417;-79
2023/03/20 04:05:05;;;;;;;16.27;10.60;;;;;;;;;;5062084;28;20444;-79
2023/03/20 04:07:32;;;;;;;15.23;9.73;;;;;;;;;;5062961;28;20484;-79
2023/03/20 04:09:58;;;;;;;14.48;9.48;;;;;;;;;;5065263;28;20959;-78
2023/03/20 04:12:33;;;;;;;14.38;9.70;;;;;;;;;;5064368;28;20412;-79
2023/03/20 04:15:00;;;;;;;12.88;9.48;;;;;;;;;;5066915;28;20431;-79
2023/03/20 04:17:28;;;;;;;17.57;10.10;;;;;;;;;;5064583;28;20458;-79
2023/03/20 04:19:54;;;;;;;12.83;9.30;;;;;;;;;;5060943;28;20456;-79
2023/03/20 04:22:20;;;;;;;13.82;9.95;;;;;;;;;;5063507;28;20917;-79
2023/03/20 04:24:48;;;;;;;14.10;9.60;;;;;;;;;;5064224;28;20459;-78
2023/03/20 04:27:15;;;;;;;14.40;9.77;;;;;;;;;;5067354;28;20566;-78
2023/03/20 04:29:42;;;;;;;16.35;9.32;;;;;;;;;;5063717;28;20456;-78
2023/03/20 04:32:09;;;;;;;14.63;9.50;;;;;;;;;;5067069;28;20407;-80
2023/03/20 04:34:37;;;;;;;16.52;9.98;;;;;;;;;;5066291;28;20431;-80
2023/03/20 04:37:04;;;;;;;18.40;11.25;;;;;;;;;;5059450;28;20431;-80
2023/03/20 04:39:30;;;;;;;15.10;10.73;;;;;;;;;;5062160;28;20431;-80
2023/03/20 04:41:56;;;;;;;16.43;10.30;;;;;;;;;;5062885;28;20789;-80
2023/03/20 04:44:23;;;;;;;15.27;10.13;;;;;;;;;;5063957;28;20441;-80
2023/03/20 04:46:49;;;;;;;17.90;10.55;;;;;;;;;;5063849;28;20408;-80
2023/03/20 04:49:16;;;;;;;16.63;11.05;;;;;;;;;;5065004;28;20427;-80
2023/03/20 04:51:44;;;;;;;17.10;10.85;;;;;;;;;;5064797;28;20412;-81
2023/03/20 04:54:10;;;;;;;16.85;10.63;;;;;;;;;;5069266;28;20429;-80
2023/03/20 04:56:36;;;;;;;16.88;11.60;;;;;;;;;;5068328;28;20433;-80
2023/03/20 04:59:03;;;;;;;16.67;10.20;;;;;;;;;;5069346;28;20442;-80
2023/03/20 05:01:30;;;;;;;17.75;11.07;;;;;;;;;;5064870;28;20928;-80
2023/03/20 05:03:59;;;;;;;18.08;12.25;;;;;;;;;;5066748;28;20463;-80
2023/03/20 05:06:26;;;;;;;18.70;11.50;;;;;;;;;;5064619;28;20435;-79
2023/03/20 05:08:54;;;;;;;18.38;11.15;;;;;;;;;;5067653;28;20421;-80
2023/03/20 05:11:20;;;;;;;19.10;11.15;;;;;;;;;;5068314;28;20431;-80
2023/03/20 05:13:48;;;;;;;17.02;10.50;;;;;;;;;;5070543;28;20516;-81
2023/03/20 05:16:19;;;;;;;17.60;11.40;;;;;;;;;;5070980;28;20519;-80
2023/03/20 05:18:46;;;;;;;18.33;11.70;;;;;;;;;;5066508;28;20454;-80
2023/03/20 05:21:12;;;;;;;18.80;11.20;;;;;;;;;;5069766;28;20427;-79
2023/03/20 05:23:39;;;;;;;18.63;12.20;;;;;;;;;;5070599;28;20913;-80
2023/03/20 05:26:07;;;;;;;17.45;11.45;;;;;;;;;;5069681;28;20451;-80
2023/03/20 05:28:33;;;;;;;18.52;11.98;;;;;;;;;;5068178;28;20450;-79
2023/03/20 05:31:00;;;;;;;17.30;11.32;;;;;;;;;;5068497;28;20435;-80
2023/03/20 05:33:26;;;;;;;19.90;12.13;;;;;;;;;;5070341;28;20411;-79
2023/03/20 05:35:52;;;;;;;19.27;11.77;;;;;;;;;;5066862;28;20440;-80
2023/03/20 05:38:21;;;;;;;17.00;11.75;;;;;;;;;;5069376;28;20432;-81
2023/03/20 05:40:47;;;;;;;18.15;11.38;;;;;;;;;;5065370;28;20433;-81
2023/03/20 05:43:15;;;;;;;18.92;12.55;;;;;;;;;;5071099;28;20428;-81
2023/03/20 05:45:43;;;;;;;21.30;13.30;;;;;;;;;;5069908;28;20431;-80
2023/03/20 05:48:10;;;;;;;18.17;11.70;;;;;;;;;;5069229;28;20433;-80
2023/03/20 05:50:37;;;;;;;20.37;13.67;;;;;;;;;;5067671;28;20433;-80
2023/03/20 05:53:05;;;;;;;20.05;12.43;;;;;;;;;;5072913;28;20785;-80
2023/03/20 05:55:31;;;;;;;18.75;12.13;;;;;;;;;;5072508;28;20549;-80
2023/03/20 05:57:58;;;;;;;19.33;12.48;;;;;;;;;;5069128;28;20426;-81
2023/03/20 06:00:26;;;;;;;16.67;10.60;;;;;;;;;;5072172;28;20427;-80
2023/03/20 06:02:52;;;;;;;18.60;12.30;;;;;;;;;;5071008;28;20425;-81
2023/03/20 06:05:19;;;;;;;18.20;11.18;;;;;;;;;;5071311;28;20762;-81
2023/03/20 06:07:45;;;;;;;20.08;11.43;;;;;;;;;;5070818;28;20512;-80
2023/03/20 06:10:13;;;;;;;16.83;10.53;;;;;;;;;;5069090;28;20436;-79
2023/03/20 06:12:39;;;;;;;16.60;10.65;;;;;;;;;;5073159;28;20421;-79
2023/03/20 06:15:08;;;;;;;18.35;11.18;;;;;;;;;;5071866;28;20436;-79
2023/03/20 06:17:35;;;;;;;20.38;10.57;;;;;;;;;;5071195;28;20972;-79
2023/03/20 06:20:02;;;;;;;17.05;10.93;;;;;;;;;;5071180;28;20436;-81
2023/03/20 06:22:28;;;;;;;15.70;10.88;;;;;;;;;;5067962;28;20499;-80
2023/03/20 06:24:56;;;;;;;17.80;10.30;;;;;;;;;;5072474;28;20427;-79
2023/03/20 06:27:22;;;;;;;16.65;10.40;;;;;;;;;;5071438;28;20432;-81
2023/03/20 06:29:50;;;;;;;17.65;10.80;;;;;;;;;;5070798;28;20439;-81
2023/03/20 06:32:17;;;;;;;17.58;10.98;;;;;;;;;;5059188;28;20934;-82
2023/03/20 06:34:45;;;;;;;18.85;12.10;;;;;;;;;;5053213;28;20432;-80
2023/03/20 06:37:11;;;;;;;18.58;11.45;;;;;;;;;;5051590;28;20478;-81
2023/03/20 06:39:38;;;;;;;19.17;10.88;;;;;;;;;;5054379;28;20417;-81
2023/03/20 06:42:05;;;;;;;15.32;11.00;;;;;;;;;;5052700;28;20902;-80
2023/03/20 06:44:31;;;;;;;16.95;11.10;;;;;;;;;;5053717;28;20431;-81
2023/03/20 06:46:57;;;;;;;19.95;11.38;;;;;;;;;;5059025;28;20896;-79
2023/03/20 06:49:24;;;;;;;21.98;11.50;;;;;;;;;;5072307;28;20431;-82
2023/03/20 06:51:51;;;;;;;18.33;11.60;;;;;;;;;;5075053;28;20405;-80
2023/03/20 06:54:18;;;;;;;22.42;12.80;;;;;;;;;;5074629;28;20403;-80
2023/03/20 06:56:45;;;;;;;21.43;13.20;;;;;;;;;;5074218;28;20403;-80
2023/03/20 06:59:11;;;;;;;20.33;12.98;;;;;;;;;;5075042;28;20962;-81
2023/03/20 07:01:38;;;;;;;18.10;12.68;;;;;;;;;;5069379;28;20760;-79
2023/03/20 07:04:04;;;;;;;22.63;14.63;;;;;;;;;;5062454;28;20427;-79
2023/03/20 07:06:31;;;;;;;20.88;13.38;;;;;;;;;;5067534;28;20421;-78
2023/03/20 07:08:58;;;;;;;22.43;13.53;;;;;;;;;;5065997;28;20423;-78
2023/03/20 07:11:25;;;;;;;24.35;13.00;;;;;;;;;;5066666;28;20416;-79
2023/03/20 07:13:51;;;;;;;21.45;13.40;;;;;;;;;;5065819;28;20399;-79
2023/03/20 07:16:18;;;;;;;22.65;14.35;;;;;;;;;;5064221;28;20409;-79
2023/03/20 07:18:44;;;;;;;20.33;14.50;;;;;;;;;;5067450;28;20420;-78
2023/03/20 07:21:15;;;;;;;20.83;13.65;;;;;;;;;;5068960;28;20433;-79
2023/03/20 07:23:41;;;;;;;19.70;13.90;;;;;;;;;;5065367;28;20419;-79
2023/03/20 07:26:08;;;;;;;26.00;14.80;;;;;;;;;;5067022;28;20436;-81
2023/03/20 07:28:35;;;;;;;22.42;14.50;;;;;;;;;;5070130;28;20420;-79
2023/03/20 07:31:01;;;;;;;22.83;14.50;;;;;;;;;;5067921;28;20518;-79
2023/03/20 07:33:28;;;;;;;19.90;14.02;;;;;;;;;;5067201;28;20826;-80
2023/03/20 07:35:54;;;;;;;21.70;14.07;;;;;;;;;;5062581;28;20918;-79
2023/03/20 07:38:21;;;;;;;22.35;13.38;;;;;;;;;;5068438;28;20492;-79
2023/03/20 07:40:49;;;;;;;23.10;14.20;;;;;;;;;;5068610;28;20524;-79
2023/03/20 07:43:17;;;;;;;22.58;15.20;;;;;;;;;;5065461;28;20424;-79
2023/03/20 07:45:44;;;;;;;19.38;12.90;;;;;;;;;;5062980;28;20440;-79
2023/03/20 07:48:10;;;;;;;19.70;13.38;;;;;;;;;;5064719;28;20466;-79
2023/03/20 07:50:37;;;;;;;19.00;12.65;;;;;;;;;;5065912;28;20775;-79
2023/03/20 07:53:03;;;;;;;20.92;13.63;;;;;;;;;;5068886;28;20423;-78
2023/03/20 07:55:29;;;;;;;20.30;12.55;;;;;;;;;;5063950;28;20409;-78
2023/03/20 07:57:56;;;;;;;19.85;12.27;;;;;;;;;;5066447;28;20502;-78
2023/03/20 08:00:24;;;;;;;21.40;11.85;;;;;;;;;;5059041;28;20418;-79
2023/03/20 08:02:50;;;;;;;16.27;12.00;;;;;;;;;;5067057;28;20948;-79
2023/03/20 08:05:16;;;;;;;18.45;11.95;;;;;;;;;;5064152;28;22072;-79
2023/03/20 08:07:44;;;;;;;15.13;11.57;;;;;;;;;;5066600;28;20461;-78
2023/03/20 08:10:11;;;;;;;20.08;12.13;;;;;;;;;;5064289;28;20935;-78
2023/03/20 08:12:38;;;;;;;17.92;11.15;;;;;;;;;;5061373;28;20413;-79
2023/03/20 08:15:05;;;;;;;16.02;10.38;;;;;;;;;;5071193;28;20423;-79
2023/03/20 08:17:33;;;;;;;14.13;10.57;;;;;;;;;;5064038;28;20432;-80
2023/03/20 08:19:59;;;;;;;18.98;9.55;;;;;;;;;;5065492;28;20514;-79
2023/03/20 08:22:25;;;;;;;18.73;10.63;;;;;;;;;;5060928;28;20430;-79
2023/03/20 08:24:52;;;;;;;15.15;10.10;;;;;;;;;;5063863;28;20433;-78
2023/03/20 08:27:18;;;;;;;17.45;9.68;;;;;;;;;;5064170;28;20424;-79
2023/03/20 08:29:46;;;;;;;14.20;10.10;;;;;;;;;;5066263;28;20436;-79
2023/03/20 08:32:12;;;;;;;12.57;9.40;;;;;;;;;;5064443;28;20417;-79
2023/03/20 08:34:40;;;;;;;13.88;9.90;;;;;;;;;;5068466;28;20773;-78
2023/03/20 08:37:06;;;;;;;13.37;9.60;;;;;;;;;;5070147;28;20413;-79
2023/03/20 08:39:34;;;;;;;15.60;9.75;;;;;;;;;;5068709;28;20442;-79
2023/03/20 08:42:04;;;;;;;18.00;11.13;;;;;;;;;;5072679;28;20415;-79
2023/03/20 08:44:30;;;;;;;14.35;10.23;;;;;;;;;;5070925;28;20427;-79
2023/03/20 08:46:57;;;;;;;15.27;10.17;;;;;;;;;;5069637;28;20932;-79
2023/03/20 08:49:24;;;;;;;13.77;9.70;;;;;;;;;;5072347;28;20417;-79
2023/03/20 08:51:52;;;;;;;23.17;10.70;;;;;;;;;;5067502;28;20412;-80
2023/03/20 08:54:18;;;;;;;14.10;9.98;;;;;;;;;;5068767;28;21017;-79
2023/03/20 08:56:44;;;;;;;15.55;10.73;;;;;;;;;;5068605;28;20893;-78
2023/03/20 08:59:11;;;;;;;14.02;9.40;;;;;;;;;;5070617;28;20415;-79
2023/03/20 09:01:39;;;;;;;16.85;9.60;;;;;;;;;;5069004;28;20966;-79
2023/03/20 09:04:05;;;;;;;13.80;9.98;;;;;;;;;;5070736;28;20431;-79
2023/03/20 09:06:35;;;;;;;14.38;10.10;;;;;;;;;;5066199;28;20425;-80
2023/03/20 09:09:04;;;;;;;16.45;10.30;;;;;;;;;;5065278;28;20508;-80
2023/03/20 09:11:33;;;;;;;13.70;10.40;;;;;;;;;;5070241;28;20421;-79
2023/03/20 09:13:59;;;;;;;17.10;10.20;;;;;;;;;;5069292;28;20408;-81
2023/03/20 09:16:27;;;;;;;17.50;10.80;;;;;;;;;;5070360;28;20438;-79
2023/03/20 09:18:54;;;;;;;15.82;9.30;;;;;;;;;;5068695;28;20477;-80
2023/03/20 09:21:21;;;;;;;16.40;10.15;;;;;;;;;;5067912;28;20446;-81
2023/03/20 09:23:47;;;;;;;14.88;10.35;;;;;;;;;;5066630;28;20423;-80
2023/03/20 09:26:15;;;;;;;14.23;9.60;;;;;;;;;;5068424;28;20420;-80
2023/03/20 09:28:42;;;;;;;15.77;9.88;;;;;;;;;;5066459;28;20430;-80
2023/03/20 09:31:08;;;;;;;12.40;8.68;;;;;;;;;;5067949;28;20424;-80
2023/03/20 09:33:34;;;;;;;13.50;9.23;;;;;;;;;;5066944;28;20417;-80
2023/03/20 09:36:01;;;;;;;11.68;8.90;;;;;;;;;;5064512;28;20425;-80
2023/03/20 09:38:27;;;;;;;13.93;8.48;;;;;;;;;;5066658;28;20413;-80
2023/03/20 09:40:58;;;;;;;11.85;8.50;;;;;;;;;;5068128;28;20794;-80
2023/03/20 09:43:48;;;;;;;11.13;7.70;;;;;;;;;;5069442;28;20416;-80
2023/03/20 09:46:24;;;;;;;13.00;8.10;;;;;;;;;;5069490;28;20443;-80
2023/03/20 09:48:53;;;;;;;11.70;7.90;;;;;;;;;;5066512;28;20418;-80
2023/03/20 09:51:25;;;;;;;9.00;6.90;;;;;;;;;;5064637;28;20435;-79
2023/03/20 09:53:54;;;;;;;13.40;8.05;;;;;;;;;;5065260;28;20432;-80
2023/03/20 09:56:23;;;;;;;10.80;7.90;;;;;;;;;;5066153;28;20465;-79
2023/03/20 09:58:52;;;;;;;10.48;8.65;;;;;;;;;;5064686;28;20408;-79
2023/03/20 10:01:22;;;;;;;11.82;7.90;;;;;;;;;;5063030;28;20424;-79
2023/03/20 10:03:51;;;;;;;11.10;8.13;;;;;;;;;;5066702;28;20413;-81
2023/03/20 10:06:18;;;;;;;13.70;8.50;;;;;;;;;;5063585;28;21002;-79
2023/03/20 10:08:45;;;;;;;10.65;8.05;;;;;;;;;;5062879;28;20412;-81
2023/03/20 10:11:19;;;;;;;11.57;8.38;;;;;;;;;;5067296;28;20427;-78
2023/03/20 10:13:54;;;;;;;15.05;8.65;;;;;;;;;;5064127;28;20407;-78
2023/03/20 10:16:25;;;;;;;13.15;8.10;;;;;;;;;;5069045;28;20429;-78
2023/03/20 10:18:56;;;;;;;10.93;8.00;;;;;;;;;;5067870;28;20441;-78
2023/03/20 10:21:25;;;;;;;13.32;7.60;;;;;;;;;;5062301;28;20752;-78
2023/03/20 10:23:56;;;;;;;12.98;7.60;;;;;;;;;;5065240;28;20421;-79
2023/03/20 10:26:23;;;;;;;14.10;8.48;;;;;;;;;;5063278;28;20424;-78
2023/03/20 10:28:51;;;;;;;10.98;7.68;;;;;;;;;;5064630;28;20425;-78
2023/03/20 10:31:33;;;;;;;11.02;6.38;;;;;;;;;;5066084;28;20414;-79
2023/03/20 10:34:08;;;;;;;9.95;6.65;;;;;;;;;;5062966;28;20523;-79
2023/03/20 10:36:42;;;;;;;10.38;7.00;;;;;;;;;;5067132;28;20418;-79
2023/03/20 10:39:11;;;;;;;13.13;7.40;;;;;;;;;;5069329;28;20419;-78
2023/03/20 10:41:40;;;;;;;14.20;7.25;;;;;;;;;;5065653;28;20927;-79
2023/03/20 10:44:10;;;;;;;14.38;7.10;;;;;;;;;;5069695;28;20433;-79
2023/03/20 10:46:40;;;;;;;14.57;7.57;;;;;;;;;;5067092;28;20495;-79
2023/03/20 10:49:13;;;;;;;11.52;6.80;;;;;;;;;;5065796;28;20439;-80
2023/03/20 10:51:41;;;;;;;12.07;6.32;;;;;;;;;;5070853;28;20416;-80
2023/03/20 10:54:12;;;;;;;13.00;6.93;;;;;;;;;;5066094;28;20414;-80
2023/03/20 10:56:40;;;;;;;12.60;7.10;;;;;;;;;;5064627;28;20554;-80
2023/03/20 10:59:09;;;;;;;10.23;6.40;;;;;;;;;;5062728;28;20919;-80
2023/03/20 11:01:35;;;;;;;13.40;7.05;;;;;;;;;;5062635;28;20812;-80
2023/03/20 11:04:01;;;;;;;10.17;6.50;;;;;;;;;;5046493;28;20414;-80
2023/03/20 11:06:31;;;;;;;10.35;6.43;;;;;;;;;;5045615;28;20411;-81
2023/03/20 11:09:10;;;;;;;12.68;6.78;;;;;;;;;;5042509;28;20437;-80
2023/03/20 11:11:43;;;;;;;16.38;6.93;;;;;;;;;;5043369;28;20423;-79
2023/03/20 11:14:17;;;;;;;8.20;5.55;;;;;;;;;;5045648;28;20449;-80
2023/03/20 11:16:47;;;;;;;15.70;6.40;;;;;;;;;;5045635;28;20413;-80
2023/03/20 11:19:14;;;;;;;12.15;6.30;;;;;;;;;;5044759;28;20435;-79
2023/03/20 11:21:47;;;;;;;12.50;7.82;;;;;;;;;;5044509;28;20415;-80
2023/03/20 11:24:21;;;;;;;11.33;6.47;;;;;;;;;;5045511;28;20416;-79
2023/03/20 11:26:50;;;;;;;13.63;7.72;;;;;;;;;;5045498;28;20414;-79
2023/03/20 11:29:22;;;;;;;12.68;7.10;;;;;;;;;;5040607;28;20434;-80
2023/03/20 11:31:51;;;;;;;13.20;6.97;;;;;;;;;;5047781;28;20436;-78
2023/03/20 11:34:26;;;;;;;14.23;7.13;;;;;;;;;;5047848;28;20448;-79
2023/03/20 11:36:59;;;;;;;9.65;6.10;;;;;;;;;;5042844;28;20419;-79
2023/03/20 11:39:26;;;;;;;11.23;7.13;;;;;;;;;;5043190;28;20418;-78
2023/03/20 11:41:53;;;;;;;11.93;6.63;;;;;;;;;;5045271;28;20421;-80
2023/03/20 11:44:21;;;;;;;10.73;6.30;;;;;;;;;;5044964;28;20419;-78
2023/03/20 11:46:55;;;;;;;11.93;6.75;;;;;;;;;;5045352;28;20415;-78
2023/03/20 11:49:23;;;;;;;10.33;7.27;;;;;;;;;;5043303;28;20449;-77
2023/03/20 11:51:50;;;;;;;12.07;6.95;;;;;;;;;;5041956;28;20426;-79
2023/03/20 11:54:19;;;;;;;13.37;6.67;;;;;;;;;;5040803;28;20427;-78
2023/03/20 11:56:57;;;;;;;12.63;7.20;;;;;;;;;;5044671;28;20438;-78
2023/03/20 11:59:26;;;;;;;9.63;6.50;;;;;;;;;;5038138;28;20421;-77
2023/03/20 12:01:53;;;;;;;10.65;7.18;;;;;;;;;;5040147;28;20439;-79
2023/03/20 12:04:25;;;;;;;11.25;7.90;;;;;;;;;;5048290;28;20420;-77
2023/03/20 12:06:54;;;;;;;9.77;7.15;;;;;;;;;;5047279;28;20509;-78
2023/03/20 12:09:30;;;;;;;12.07;7.30;;;;;;;;;;5044438;28;20418;-78
2023/03/20 12:11:58;;;;;;;13.68;7.30;;;;;;;;;;5048311;28;20424;-78
2023/03/20 12:14:27;;;;;;;13.25;7.50;;;;;;;;;;5048068;28;20977;-78
2023/03/20 12:16:57;;;;;;;14.73;8.05;;;;;;;;;;5048849;28;20433;-78
2023/03/20 12:19:26;;;;;;;13.82;8.20;;;;;;;;;;5045174;28;20433;-78
2023/03/20 12:21:55;;;;;;;12.30;8.48;;;;;;;;;;5046914;28;20764;-78
2023/03/20 12:24:26;;;;;;;13.35;8.25;;;;;;;;;;5048197;28;20417;-78
2023/03/20 12:26:57;;;;;;;13.75;8.55;;;;;;;;;;5048738;28;20425;-78
2023/03/20 12:29:27;;;;;;;19.10;9.23;;;;;;;;;;5046287;28;20772;-78
2023/03/20 12:31:56;;;;;;;14.35;8.18;;;;;;;;;;5042161;28;20456;-80
2023/03/20 12:34:24;;;;;;;12.18;9.15;;;;;;;;;;5048220;28;20464;-80
2023/03/20 12:36:53;;;;;;;12.80;7.80;;;;;;;;;;5045991;28;20473;-79
2023/03/20 12:39:22;;;;;;;13.80;7.95;;;;;;;;;;5047071;28;20810;-78
2023/03/20 12:41:59;;;;;;;13.30;8.30;;;;;;;;;;5044504;28;20420;-78
2023/03/20 12:44:29;;;;;;;13.43;8.20;;;;;;;;;;5050421;28;20487;-78
2023/03/20 12:47:01;;;;;;;13.75;8.60;;;;;;;;;;5047529;28;20429;-78
2023/03/20 12:49:34;;;;;;;10.02;7.35;;;;;;;;;;5043632;28;20411;-78
2023/03/20 12:52:04;;;;;;;13.90;7.93;;;;;;;;;;5050741;28;20428;-78
2023/03/20 12:54:36;;;;;;;15.95;8.80;;;;;;;;;;5043438;28;20457;-79
2023/03/20 12:57:11;;;;;;;11.90;7.40;;;;;;;;;;5049981;28;20942;-79
2023/03/20 12:59:43;;;;;;;12.82;8.30;;;;;;;;;;5047997;28;20415;-78
2023/03/20 13:02:18;;;;;;;15.35;9.10;;;;;;;;;;5045574;28;20996;-77
2023/03/20 13:04:50;;;;;;;10.82;8.23;;;;;;;;;;5041813;28;20937;-80
2023/03/20 13:07:18;;;;;;;12.63;8.00;;;;;;;;;;5046612;28;20438;-77
2023/03/20 13:09:51;;;;;;;12.60;8.00;;;;;;;;;;5045235;28;20423;-79
2023/03/20 13:12:25;;;;;;;12.82;7.63;;;;;;;;;;5045465;28;20413;-78
2023/03/20 13:14:55;;;;;;;12.45;7.93;;;;;;;;;;5047925;28;20425;-78
2023/03/20 13:17:24;;;;;;;13.73;7.45;;;;;;;;;;5043924;28;20436;-78
2023/03/20 13:19:55;;;;;;;14.90;8.10;;;;;;;;;;5047469;28;20494;-78
2023/03/20 13:22:25;;;;;;;12.25;8.38;;;;;;;;;;5044160;28;20436;-79
2023/03/20 13:24:54;;;;;;;17.90;8.07;;;;;;;;;;5042748;28;20505;-78
2023/03/20 13:27:27;;;;;;;12.10;7.80;;;;;;;;;;5051849;28;20418;-77
2023/03/20 13:29:57;;;;;;;17.80;9.20;;;;;;;;;;5059777;28;20769;-78
2023/03/20 13:32:30;;;;;;;16.17;8.43;;;;;;;;;;5066396;28;20424;-78
2023/03/20 13:35:18;;;;;;;11.48;8.27;;;;;;;;;;5059739;28;20463;-80
2023/03/20 13:37:46;;;;;;;13.18;8.10;;;;;;;;;;5065780;28;20439;-77
2023/03/20 13:40:16;;;;;;;15.25;7.80;;;;;;;;;;5065278;28;20752;-78
2023/03/20 13:42:47;;;;;;;13.05;8.00;;;;;;;;;;5065698;28;20417;-78
2023/03/20 13:45:21;;;;;;;17.48;8.18;;;;;;;;;;5060984;28;20426;-78
2023/03/20 13:47:50;;;;;;;18.17;9.02;;;;;;;;;;5064674;28;20429;-78
2023/03/20 13:50:26;;;;;;;10.75;7.50;;;;;;;;;;5065666;28;20408;-78
2023/03/20 13:52:58;;;;;;;13.10;7.55;;;;;;;;;;5060032;28;20424;-78
2023/03/20 13:55:29;;;;;;;15.63;7.88;;;;;;;;;;5063087;28;20440;-78
2023/03/20 13:58:14;;;;;;;11.23;8.05;;;;;;;;;;5064050;28;20415;-78
2023/03/20 14:00:43;;;;;;;11.57;7.30;;;;;;;;;;5063231;28;20897;-78
2023/03/20 14:03:17;;;;;;;9.73;7.75;;;;;;;;;;5058646;28;20422;-78
2023/03/20 14:05:44;;;;;;;10.97;7.37;;;;;;;;;;5056438;28;20423;-78
2023/03/20 14:08:21;;;;;;;12.20;7.68;;;;;;;;;;5061991;28;20435;-78
2023/03/20 14:10:48;;;;;;;11.77;8.13;;;;;;;;;;5062678;28;20954;-78
2023/03/20 14:13:17;;;;;;;12.23;8.17;;;;;;;;;;5063346;28;20420;-78
2023/03/20 14:15:47;;;;;;;10.70;7.30;;;;;;;;;;5065732;28;20412;-78
2023/03/20 14:18:15;;;;;;;9.38;7.47;;;;;;;;;;5063962;28;20788;-79
2023/03/20 14:20:43;;;;;;;11.73;7.70;;;;;;;;;;5067126;28;20415;-78
2023/03/20 14:23:16;;;;;;;14.35;7.40;;;;;;;;;;5046534;28;20426;-79
2023/03/20 14:25:43;;;;;;;13.57;8.40;;;;;;;;;;5040691;28;20450;-80
2023/03/20 14:28:24;;;;;;;14.15;8.20;;;;;;;;;;5041886;28;20780;-79
2023/03/20 14:30:50;;;;;;;12.20;8.07;;;;;;;;;;5027158;28;20784;-79
2023/03/20 14:33:30;;;;;;;14.63;8.60;;;;;;;;;;5042718;28;20421;-80
2023/03/20 14:36:27;;;;;;;14.07;7.70;;;;;;;;;;5044903;28;20455;-79